sensor_id;sensor_type;location;lat;lon;timestamp;temperature;humidity
326;DHT22;150;52.352;14.058;2022-12-07T00:00:12;6.10;53.40
326;DHT22;150;52.352;14.058;2022-12-07T00:02:40;6.00;53.10
326;DHT22;150;52.352;14.058;2022-12-07T00:05:07;6.00;53.30
326;DHT22;150;52.352;14.058;2022-12-07T00:07:34;6.10;53.40
326;DHT22;150;52.352;14.058;2022-12-07T00:10:00;6.00;52.60
326;DHT22;150;52.352;14.058;2022-12-07T00:12:28;6.00;52.90
326;DHT22;150;52.352;14.058;2022-12-07T00:14:54;6.00;53.00
326;DHT22;150;52.352;14.058;2022-12-07T00:17:21;6.10;53.20
326;DHT22;150;52.352;14.058;2022-12-07T00:19:49;6.20;53.20
326;DHT22;150;52.352;14.058;2022-12-07T00:22:15;6.20;52.60
326;DHT22;150;52.352;14.058;2022-12-07T00:24:42;6.20;52.10
326;DHT22;150;52.352;14.058;2022-12-07T00:27:08;6.20;51.90
326;DHT22;150;52.352;14.058;2022-12-07T00:29:35;6.20;52.10
326;DHT22;150;52.352;14.058;2022-12-07T00:32:02;6.20;51.60
326;DHT22;150;52.352;14.058;2022-12-07T00:34:30;6.20;52.00
326;DHT22;150;52.352;14.058;2022-12-07T00:36:57;6.20;52.10
326;DHT22;150;52.352;14.058;2022-12-07T00:39:24;6.30;52.20
326;DHT22;150;52.352;14.058;2022-12-07T00:41:51;6.30;51.80
326;DHT22;150;52.352;14.058;2022-12-07T00:44:17;6.30;51.20
326;DHT22;150;52.352;14.058;2022-12-07T00:46:44;6.30;51.20
326;DHT22;150;52.352;14.058;2022-12-07T00:49:11;6.20;51.10
326;DHT22;150;52.352;14.058;2022-12-07T00:51:38;5.90;51.50
326;DHT22;150;52.352;14.058;2022-12-07T00:54:06;5.80;51.70
326;DHT22;150;52.352;14.058;2022-12-07T00:56:32;5.80;52.00
326;DHT22;150;52.352;14.058;2022-12-07T00:59:01;5.80;52.50
326;DHT22;150;52.352;14.058;2022-12-07T01:01:30;5.80;52.40
326;DHT22;150;52.352;14.058;2022-12-07T01:03:57;5.70;52.30
326;DHT22;150;52.352;14.058;2022-12-07T01:06:26;5.70;52.90
326;DHT22;150;52.352;14.058;2022-12-07T01:08:53;5.70;52.50
326;DHT22;150;52.352;14.058;2022-12-07T01:11:23;5.60;52.40
326;DHT22;150;52.352;14.058;2022-12-07T01:13:50;5.60;52.40
326;DHT22;150;52.352;14.058;2022-12-07T01:16:17;5.60;52.30
326;DHT22;150;52.352;14.058;2022-12-07T01:18:46;5.50;52.20
326;DHT22;150;52.352;14.058;2022-12-07T01:21:16;5.50;52.90
326;DHT22;150;52.352;14.058;2022-12-07T01:23:43;5.40;51.70
326;DHT22;150;52.352;14.058;2022-12-07T01:26:12;5.40;52.60
326;DHT22;150;52.352;14.058;2022-12-07T01:28:41;5.20;51.90
326;DHT22;150;52.352;14.058;2022-12-07T01:31:10;5.10;52.60
326;DHT22;150;52.352;14.058;2022-12-07T01:33:38;5.10;52.40
326;DHT22;150;52.352;14.058;2022-12-07T01:36:07;5.00;52.70
326;DHT22;150;52.352;14.058;2022-12-07T01:38:35;5.00;53.10
326;DHT22;150;52.352;14.058;2022-12-07T01:41:01;5.00;53.50
326;DHT22;150;52.352;14.058;2022-12-07T01:43:31;4.80;52.80
326;DHT22;150;52.352;14.058;2022-12-07T01:46:00;4.90;52.90
326;DHT22;150;52.352;14.058;2022-12-07T01:48:30;4.90;52.40
326;DHT22;150;52.352;14.058;2022-12-07T01:51:02;5.00;52.10
326;DHT22;150;52.352;14.058;2022-12-07T01:53:32;5.10;52.00
326;DHT22;150;52.352;14.058;2022-12-07T01:56:01;5.10;51.70
326;DHT22;150;52.352;14.058;2022-12-07T01:58:28;5.10;50.20
326;DHT22;150;52.352;14.058;2022-12-07T02:00:55;5.10;50.60
326;DHT22;150;52.352;14.058;2022-12-07T02:03:29;5.10;50.80
326;DHT22;150;52.352;14.058;2022-12-07T02:05:58;5.10;49.80
326;DHT22;150;52.352;14.058;2022-12-07T02:08:26;5.00;48.80
326;DHT22;150;52.352;14.058;2022-12-07T02:10:52;5.00;49.40
326;DHT22;150;52.352;14.058;2022-12-07T02:13:21;5.00;49.70
326;DHT22;150;52.352;14.058;2022-12-07T02:16:04;5.00;48.40
326;DHT22;150;52.352;14.058;2022-12-07T02:18:48;5.00;49.00
326;DHT22;150;52.352;14.058;2022-12-07T02:21:22;5.00;48.20
326;DHT22;150;52.352;14.058;2022-12-07T02:24:14;4.90;48.00
326;DHT22;150;52.352;14.058;2022-12-07T02:27:10;4.90;47.80
326;DHT22;150;52.352;14.058;2022-12-07T02:29:46;4.90;47.50
326;DHT22;150;52.352;14.058;2022-12-07T02:32:15;4.90;48.10
326;DHT22;150;52.352;14.058;2022-12-07T02:34:47;4.90;48.10
326;DHT22;150;52.352;14.058;2022-12-07T02:37:24;4.90;47.40
326;DHT22;150;52.352;14.058;2022-12-07T02:39:55;4.80;46.90
326;DHT22;150;52.352;14.058;2022-12-07T02:42:28;4.80;47.50
326;DHT22;150;52.352;14.058;2022-12-07T02:44:59;4.80;47.70
326;DHT22;150;52.352;14.058;2022-12-07T02:47:27;4.80;48.30
326;DHT22;150;52.352;14.058;2022-12-07T02:49:55;4.80;48.40
326;DHT22;150;52.352;14.058;2022-12-07T02:52:22;4.80;48.30
326;DHT22;150;52.352;14.058;2022-12-07T02:54:48;4.80;48.20
326;DHT22;150;52.352;14.058;2022-12-07T02:57:26;4.80;48.30
326;DHT22;150;52.352;14.058;2022-12-07T03:00:03;4.70;48.50
326;DHT22;150;52.352;14.058;2022-12-07T03:02:38;4.80;48.20
326;DHT22;150;52.352;14.058;2022-12-07T03:05:21;4.80;48.20
326;DHT22;150;52.352;14.058;2022-12-07T03:07:55;4.70;47.70
326;DHT22;150;52.352;14.058;2022-12-07T03:10:28;4.70;48.10
326;DHT22;150;52.352;14.058;2022-12-07T03:13:02;4.70;47.60
326;DHT22;150;52.352;14.058;2022-12-07T03:15:39;4.70;47.50
326;DHT22;150;52.352;14.058;2022-12-07T03:18:07;4.60;46.90
326;DHT22;150;52.352;14.058;2022-12-07T03:20:37;4.60;47.30
326;DHT22;150;52.352;14.058;2022-12-07T03:23:06;4.50;47.40
326;DHT22;150;52.352;14.058;2022-12-07T03:25:35;4.60;47.80
326;DHT22;150;52.352;14.058;2022-12-07T03:28:06;4.60;48.10
326;DHT22;150;52.352;14.058;2022-12-07T03:30:39;4.50;47.30
326;DHT22;150;52.352;14.058;2022-12-07T03:33:12;4.50;46.90
326;DHT22;150;52.352;14.058;2022-12-07T03:35:43;4.50;47.10
326;DHT22;150;52.352;14.058;2022-12-07T03:38:15;4.40;46.60
326;DHT22;150;52.352;14.058;2022-12-07T03:40:46;4.30;46.70
326;DHT22;150;52.352;14.058;2022-12-07T03:43:15;4.30;47.10
326;DHT22;150;52.352;14.058;2022-12-07T03:45:47;4.30;47.20
326;DHT22;150;52.352;14.058;2022-12-07T03:48:20;4.30;47.10
326;DHT22;150;52.352;14.058;2022-12-07T03:50:53;4.40;46.70
326;DHT22;150;52.352;14.058;2022-12-07T03:53:26;4.40;46.80
326;DHT22;150;52.352;14.058;2022-12-07T03:55:56;4.30;46.60
326;DHT22;150;52.352;14.058;2022-12-07T03:58:29;4.30;46.80
326;DHT22;150;52.352;14.058;2022-12-07T04:01:01;4.40;46.80
326;DHT22;150;52.352;14.058;2022-12-07T04:03:30;4.30;46.00
326;DHT22;150;52.352;14.058;2022-12-07T04:05:57;4.20;46.50
326;DHT22;150;52.352;14.058;2022-12-07T04:08:25;4.10;46.70
326;DHT22;150;52.352;14.058;2022-12-07T04:10:52;4.10;46.90
326;DHT22;150;52.352;14.058;2022-12-07T04:13:19;4.10;46.90
326;DHT22;150;52.352;14.058;2022-12-07T04:15:49;4.10;46.80
326;DHT22;150;52.352;14.058;2022-12-07T04:18:21;4.10;47.40
326;DHT22;150;52.352;14.058;2022-12-07T04:20:51;4.10;47.00
326;DHT22;150;52.352;14.058;2022-12-07T04:23:19;4.10;47.10
326;DHT22;150;52.352;14.058;2022-12-07T04:25:48;4.10;47.10
326;DHT22;150;52.352;14.058;2022-12-07T04:28:15;4.00;46.70
326;DHT22;150;52.352;14.058;2022-12-07T04:30:42;3.90;47.00
326;DHT22;150;52.352;14.058;2022-12-07T04:33:08;3.90;47.40
326;DHT22;150;52.352;14.058;2022-12-07T04:35:38;3.90;47.60
326;DHT22;150;52.352;14.058;2022-12-07T04:38:05;3.80;47.60
326;DHT22;150;52.352;14.058;2022-12-07T04:40:32;3.70;48.00
326;DHT22;150;52.352;14.058;2022-12-07T04:42:59;3.80;48.80
326;DHT22;150;52.352;14.058;2022-12-07T04:45:30;3.80;49.10
326;DHT22;150;52.352;14.058;2022-12-07T04:48:00;3.80;48.80
326;DHT22;150;52.352;14.058;2022-12-07T04:50:28;3.80;49.00
326;DHT22;150;52.352;14.058;2022-12-07T04:52:57;3.90;48.90
326;DHT22;150;52.352;14.058;2022-12-07T04:55:27;3.80;49.20
326;DHT22;150;52.352;14.058;2022-12-07T04:57:54;3.80;49.10
326;DHT22;150;52.352;14.058;2022-12-07T05:00:22;3.80;49.60
326;DHT22;150;52.352;14.058;2022-12-07T05:02:49;3.80;49.50
326;DHT22;150;52.352;14.058;2022-12-07T05:05:17;3.80;49.60
326;DHT22;150;52.352;14.058;2022-12-07T05:07:43;3.80;49.30
326;DHT22;150;52.352;14.058;2022-12-07T05:10:11;3.70;49.60
326;DHT22;150;52.352;14.058;2022-12-07T05:12:38;3.70;50.10
326;DHT22;150;52.352;14.058;2022-12-07T05:15:05;3.70;50.60
326;DHT22;150;52.352;14.058;2022-12-07T05:17:32;3.70;50.40
326;DHT22;150;52.352;14.058;2022-12-07T05:19:59;3.60;50.50
326;DHT22;150;52.352;14.058;2022-12-07T05:22:25;3.60;51.10
326;DHT22;150;52.352;14.058;2022-12-07T05:24:53;3.60;51.10
326;DHT22;150;52.352;14.058;2022-12-07T05:27:21;3.60;51.40
326;DHT22;150;52.352;14.058;2022-12-07T05:29:49;3.60;51.50
326;DHT22;150;52.352;14.058;2022-12-07T05:34:47;3.60;52.10
326;DHT22;150;52.352;14.058;2022-12-07T05:37:16;3.40;52.20
326;DHT22;150;52.352;14.058;2022-12-07T05:39:43;3.40;52.70
326;DHT22;150;52.352;14.058;2022-12-07T05:42:11;3.40;53.70
326;DHT22;150;52.352;14.058;2022-12-07T05:44:45;3.40;53.40
326;DHT22;150;52.352;14.058;2022-12-07T05:47:14;3.40;53.50
326;DHT22;150;52.352;14.058;2022-12-07T05:49:42;3.40;53.80
326;DHT22;150;52.352;14.058;2022-12-07T05:52:10;3.30;53.70
326;DHT22;150;52.352;14.058;2022-12-07T05:54:37;3.30;54.20
326;DHT22;150;52.352;14.058;2022-12-07T05:57:08;3.30;54.60
326;DHT22;150;52.352;14.058;2022-12-07T05:59:35;3.30;55.40
326;DHT22;150;52.352;14.058;2022-12-07T06:02:06;3.30;55.50
326;DHT22;150;52.352;14.058;2022-12-07T06:04:37;3.30;55.50
326;DHT22;150;52.352;14.058;2022-12-07T06:07:05;3.30;55.50
326;DHT22;150;52.352;14.058;2022-12-07T06:09:32;3.20;55.70
326;DHT22;150;52.352;14.058;2022-12-07T06:12:00;3.30;56.20
326;DHT22;150;52.352;14.058;2022-12-07T06:14:45;3.40;56.40
326;DHT22;150;52.352;14.058;2022-12-07T06:17:14;3.40;55.80
326;DHT22;150;52.352;14.058;2022-12-07T06:19:41;3.40;56.10
326;DHT22;150;52.352;14.058;2022-12-07T06:22:09;3.40;55.60
326;DHT22;150;52.352;14.058;2022-12-07T06:24:38;3.40;55.60
326;DHT22;150;52.352;14.058;2022-12-07T06:27:05;3.40;56.00
326;DHT22;150;52.352;14.058;2022-12-07T06:29:32;3.40;55.90
326;DHT22;150;52.352;14.058;2022-12-07T06:32:00;3.50;57.00
326;DHT22;150;52.352;14.058;2022-12-07T06:34:29;3.50;56.30
326;DHT22;150;52.352;14.058;2022-12-07T06:36:56;3.60;56.20
326;DHT22;150;52.352;14.058;2022-12-07T06:39:26;3.60;55.80
326;DHT22;150;52.352;14.058;2022-12-07T06:41:56;3.50;55.80
326;DHT22;150;52.352;14.058;2022-12-07T06:44:24;3.50;56.20
326;DHT22;150;52.352;14.058;2022-12-07T06:46:53;3.60;56.60
326;DHT22;150;52.352;14.058;2022-12-07T06:49:20;3.70;56.50
326;DHT22;150;52.352;14.058;2022-12-07T06:51:49;3.70;55.90
326;DHT22;150;52.352;14.058;2022-12-07T06:54:20;3.70;56.00
326;DHT22;150;52.352;14.058;2022-12-07T06:56:48;3.70;55.60
326;DHT22;150;52.352;14.058;2022-12-07T06:59:15;3.70;56.10
326;DHT22;150;52.352;14.058;2022-12-07T07:01:43;3.70;56.60
326;DHT22;150;52.352;14.058;2022-12-07T07:04:12;3.70;56.60
326;DHT22;150;52.352;14.058;2022-12-07T07:06:39;3.80;56.60
326;DHT22;150;52.352;14.058;2022-12-07T07:09:08;3.80;56.70
326;DHT22;150;52.352;14.058;2022-12-07T07:11:38;3.80;56.60
326;DHT22;150;52.352;14.058;2022-12-07T07:14:06;3.80;56.80
326;DHT22;150;52.352;14.058;2022-12-07T07:16:33;3.80;56.60
326;DHT22;150;52.352;14.058;2022-12-07T07:19:02;3.80;56.30
326;DHT22;150;52.352;14.058;2022-12-07T07:21:31;3.80;56.80
326;DHT22;150;52.352;14.058;2022-12-07T07:24:02;3.80;56.60
326;DHT22;150;52.352;14.058;2022-12-07T07:26:33;3.90;56.80
326;DHT22;150;52.352;14.058;2022-12-07T07:29:00;3.80;56.40
326;DHT22;150;52.352;14.058;2022-12-07T07:31:27;3.90;57.00
326;DHT22;150;52.352;14.058;2022-12-07T07:33:54;3.90;56.80
326;DHT22;150;52.352;14.058;2022-12-07T07:36:21;3.90;56.80
326;DHT22;150;52.352;14.058;2022-12-07T07:38:48;4.00;57.10
326;DHT22;150;52.352;14.058;2022-12-07T07:41:15;4.10;57.30
326;DHT22;150;52.352;14.058;2022-12-07T07:43:44;4.20;57.30
326;DHT22;150;52.352;14.058;2022-12-07T07:46:11;4.20;57.00
326;DHT22;150;52.352;14.058;2022-12-07T07:48:38;4.30;57.00
326;DHT22;150;52.352;14.058;2022-12-07T07:51:06;4.30;57.00
326;DHT22;150;52.352;14.058;2022-12-07T07:53:33;4.40;57.00
326;DHT22;150;52.352;14.058;2022-12-07T07:56:00;4.50;56.90
326;DHT22;150;52.352;14.058;2022-12-07T07:58:27;4.50;56.40
326;DHT22;150;52.352;14.058;2022-12-07T08:00:56;4.50;56.20
326;DHT22;150;52.352;14.058;2022-12-07T08:03:23;4.60;56.20
326;DHT22;150;52.352;14.058;2022-12-07T08:05:50;4.60;56.20
326;DHT22;150;52.352;14.058;2022-12-07T08:08:17;4.70;56.60
326;DHT22;150;52.352;14.058;2022-12-07T08:10:44;4.60;55.80
326;DHT22;150;52.352;14.058;2022-12-07T08:13:15;4.60;56.40
326;DHT22;150;52.352;14.058;2022-12-07T08:15:46;4.60;56.60
326;DHT22;150;52.352;14.058;2022-12-07T08:18:16;4.60;56.60
326;DHT22;150;52.352;14.058;2022-12-07T08:20:43;4.60;56.90
326;DHT22;150;52.352;14.058;2022-12-07T08:23:10;4.70;57.30
326;DHT22;150;52.352;14.058;2022-12-07T08:25:38;4.80;57.40
326;DHT22;150;52.352;14.058;2022-12-07T08:28:05;4.90;56.80
326;DHT22;150;52.352;14.058;2022-12-07T08:30:33;4.90;56.20
326;DHT22;150;52.352;14.058;2022-12-07T08:33:00;5.00;56.60
326;DHT22;150;52.352;14.058;2022-12-07T08:35:32;5.10;55.50
326;DHT22;150;52.352;14.058;2022-12-07T08:38:00;5.10;55.60
326;DHT22;150;52.352;14.058;2022-12-07T08:40:28;5.20;55.80
326;DHT22;150;52.352;14.058;2022-12-07T08:42:55;5.20;55.30
326;DHT22;150;52.352;14.058;2022-12-07T08:45:23;5.30;55.40
326;DHT22;150;52.352;14.058;2022-12-07T08:47:52;5.30;55.00
326;DHT22;150;52.352;14.058;2022-12-07T08:50:21;5.30;54.70
326;DHT22;150;52.352;14.058;2022-12-07T08:52:51;5.30;54.90
326;DHT22;150;52.352;14.058;2022-12-07T08:55:19;5.30;55.30
326;DHT22;150;52.352;14.058;2022-12-07T08:57:47;5.30;55.00
326;DHT22;150;52.352;14.058;2022-12-07T09:00:15;5.30;55.40
326;DHT22;150;52.352;14.058;2022-12-07T09:02:43;5.40;55.90
326;DHT22;150;52.352;14.058;2022-12-07T09:05:11;5.50;55.20
326;DHT22;150;52.352;14.058;2022-12-07T09:07:41;5.60;54.50
326;DHT22;150;52.352;14.058;2022-12-07T09:10:11;5.60;53.70
326;DHT22;150;52.352;14.058;2022-12-07T09:12:38;5.70;53.80
326;DHT22;150;52.352;14.058;2022-12-07T09:15:05;5.80;53.70
326;DHT22;150;52.352;14.058;2022-12-07T09:17:34;5.70;52.70
326;DHT22;150;52.352;14.058;2022-12-07T09:20:01;5.80;53.40
326;DHT22;150;52.352;14.058;2022-12-07T09:22:29;5.80;52.00
326;DHT22;150;52.352;14.058;2022-12-07T09:24:56;5.80;50.80
326;DHT22;150;52.352;14.058;2022-12-07T09:27:25;5.80;50.80
326;DHT22;150;52.352;14.058;2022-12-07T09:29:52;5.80;50.80
326;DHT22;150;52.352;14.058;2022-12-07T09:32:20;5.90;50.90
326;DHT22;150;52.352;14.058;2022-12-07T09:34:47;5.80;50.00
326;DHT22;150;52.352;14.058;2022-12-07T09:37:14;5.70;49.10
326;DHT22;150;52.352;14.058;2022-12-07T09:39:41;5.60;49.20
326;DHT22;150;52.352;14.058;2022-12-07T09:42:08;5.60;48.00
326;DHT22;150;52.352;14.058;2022-12-07T09:44:44;5.60;47.90
326;DHT22;150;52.352;14.058;2022-12-07T09:47:11;5.70;48.50
326;DHT22;150;52.352;14.058;2022-12-07T09:49:38;5.80;47.30
326;DHT22;150;52.352;14.058;2022-12-07T09:52:18;5.90;45.80
326;DHT22;150;52.352;14.058;2022-12-07T09:54:47;6.00;44.50
326;DHT22;150;52.352;14.058;2022-12-07T09:57:15;6.10;43.90
326;DHT22;150;52.352;14.058;2022-12-07T09:59:44;6.00;43.00
326;DHT22;150;52.352;14.058;2022-12-07T10:02:34;6.00;43.80
326;DHT22;150;52.352;14.058;2022-12-07T10:05:02;6.00;42.40
326;DHT22;150;52.352;14.058;2022-12-07T10:07:30;6.00;43.00
326;DHT22;150;52.352;14.058;2022-12-07T10:09:57;6.00;41.70
326;DHT22;150;52.352;14.058;2022-12-07T10:12:24;6.10;42.20
326;DHT22;150;52.352;14.058;2022-12-07T10:14:57;6.10;40.80
326;DHT22;150;52.352;14.058;2022-12-07T10:17:35;5.90;40.60
326;DHT22;150;52.352;14.058;2022-12-07T10:20:17;5.90;39.80
326;DHT22;150;52.352;14.058;2022-12-07T10:23:02;5.90;39.50
326;DHT22;150;52.352;14.058;2022-12-07T10:25:31;5.80;39.20
326;DHT22;150;52.352;14.058;2022-12-07T10:28:13;5.70;40.50
326;DHT22;150;52.352;14.058;2022-12-07T10:30:57;5.60;39.30
326;DHT22;150;52.352;14.058;2022-12-07T10:33:32;5.60;40.40
326;DHT22;150;52.352;14.058;2022-12-07T10:36:01;5.70;40.50
326;DHT22;150;52.352;14.058;2022-12-07T10:38:44;5.60;39.90
326;DHT22;150;52.352;14.058;2022-12-07T10:41:11;5.70;40.50
326;DHT22;150;52.352;14.058;2022-12-07T10:43:50;5.80;40.60
326;DHT22;150;52.352;14.058;2022-12-07T10:46:46;5.90;40.60
326;DHT22;150;52.352;14.058;2022-12-07T10:49:31;6.00;40.70
326;DHT22;150;52.352;14.058;2022-12-07T10:52:10;6.00;40.70
326;DHT22;150;52.352;14.058;2022-12-07T10:54:44;6.00;39.80
326;DHT22;150;52.352;14.058;2022-12-07T10:57:37;6.00;38.70
326;DHT22;150;52.352;14.058;2022-12-07T11:00:18;6.00;39.90
326;DHT22;150;52.352;14.058;2022-12-07T11:05:58;6.10;39.00
326;DHT22;150;52.352;14.058;2022-12-07T11:08:39;6.10;38.00
326;DHT22;150;52.352;14.058;2022-12-07T11:11:16;6.00;37.90
326;DHT22;150;52.352;14.058;2022-12-07T11:13:51;5.90;37.40
326;DHT22;150;52.352;14.058;2022-12-07T11:16:24;5.90;37.20
326;DHT22;150;52.352;14.058;2022-12-07T11:19:21;5.90;38.40
326;DHT22;150;52.352;14.058;2022-12-07T11:21:56;5.90;36.70
326;DHT22;150;52.352;14.058;2022-12-07T11:24:27;5.80;36.80
326;DHT22;150;52.352;14.058;2022-12-07T11:27:08;5.80;37.80
326;DHT22;150;52.352;14.058;2022-12-07T11:30:03;5.80;36.30
326;DHT22;150;52.352;14.058;2022-12-07T11:35:09;5.70;35.50
326;DHT22;150;52.352;14.058;2022-12-07T11:37:39;5.70;36.20
326;DHT22;150;52.352;14.058;2022-12-07T11:40:15;5.70;36.30
326;DHT22;150;52.352;14.058;2022-12-07T11:42:49;5.60;36.70
326;DHT22;150;52.352;14.058;2022-12-07T11:45:20;5.60;37.20
326;DHT22;150;52.352;14.058;2022-12-07T11:47:55;5.70;37.40
326;DHT22;150;52.352;14.058;2022-12-07T11:50:28;5.70;37.30
326;DHT22;150;52.352;14.058;2022-12-07T11:53:02;5.80;38.10
326;DHT22;150;52.352;14.058;2022-12-07T11:55:41;5.80;37.90
326;DHT22;150;52.352;14.058;2022-12-07T11:58:19;5.90;38.00
326;DHT22;150;52.352;14.058;2022-12-07T12:00:48;6.00;37.10
326;DHT22;150;52.352;14.058;2022-12-07T12:03:23;6.00;37.70
326;DHT22;150;52.352;14.058;2022-12-07T12:05:55;6.00;37.30
326;DHT22;150;52.352;14.058;2022-12-07T12:08:29;6.00;37.90
326;DHT22;150;52.352;14.058;2022-12-07T12:11:02;6.00;37.00
326;DHT22;150;52.352;14.058;2022-12-07T12:13:55;6.00;37.80
326;DHT22;150;52.352;14.058;2022-12-07T12:16:49;6.00;38.20
326;DHT22;150;52.352;14.058;2022-12-07T12:19:31;6.10;37.40
326;DHT22;150;52.352;14.058;2022-12-07T12:22:06;6.20;37.80
326;DHT22;150;52.352;14.058;2022-12-07T12:24:40;6.20;37.70
326;DHT22;150;52.352;14.058;2022-12-07T12:27:15;6.30;37.80
326;DHT22;150;52.352;14.058;2022-12-07T12:29:44;6.40;37.10
326;DHT22;150;52.352;14.058;2022-12-07T12:32:14;6.40;37.80
326;DHT22;150;52.352;14.058;2022-12-07T12:35:00;6.50;37.40
326;DHT22;150;52.352;14.058;2022-12-07T12:37:46;6.50;37.10
326;DHT22;150;52.352;14.058;2022-12-07T12:40:39;6.40;37.30
326;DHT22;150;52.352;14.058;2022-12-07T12:46:45;6.50;38.10
326;DHT22;150;52.352;14.058;2022-12-07T12:49:38;6.40;38.40
326;DHT22;150;52.352;14.058;2022-12-07T12:55:17;6.40;38.30
326;DHT22;150;52.352;14.058;2022-12-07T13:03:55;6.30;39.00
326;DHT22;150;52.352;14.058;2022-12-07T13:06:35;6.20;39.00
326;DHT22;150;52.352;14.058;2022-12-07T13:09:04;6.20;39.30
326;DHT22;150;52.352;14.058;2022-12-07T13:11:34;6.20;38.70
326;DHT22;150;52.352;14.058;2022-12-07T13:17:09;6.00;39.50
326;DHT22;150;52.352;14.058;2022-12-07T13:19:58;6.10;39.80
326;DHT22;150;52.352;14.058;2022-12-07T13:22:51;6.10;39.60
326;DHT22;150;52.352;14.058;2022-12-07T13:25:23;6.10;39.20
326;DHT22;150;52.352;14.058;2022-12-07T13:28:02;6.20;40.00
326;DHT22;150;52.352;14.058;2022-12-07T13:30:31;6.20;40.00
326;DHT22;150;52.352;14.058;2022-12-07T13:33:03;6.20;40.10
326;DHT22;150;52.352;14.058;2022-12-07T13:35:33;6.30;40.00
326;DHT22;150;52.352;14.058;2022-12-07T13:38:02;6.30;39.50
326;DHT22;150;52.352;14.058;2022-12-07T13:40:30;6.40;39.80
326;DHT22;150;52.352;14.058;2022-12-07T13:42:58;6.30;39.60
326;DHT22;150;52.352;14.058;2022-12-07T13:45:28;6.30;39.80
326;DHT22;150;52.352;14.058;2022-12-07T13:48:14;6.30;40.00
326;DHT22;150;52.352;14.058;2022-12-07T13:50:42;6.30;40.70
326;DHT22;150;52.352;14.058;2022-12-07T13:53:13;6.30;40.60
326;DHT22;150;52.352;14.058;2022-12-07T13:55:45;6.40;40.90
326;DHT22;150;52.352;14.058;2022-12-07T13:58:15;6.40;40.70
326;DHT22;150;52.352;14.058;2022-12-07T14:00:42;6.40;41.00
326;DHT22;150;52.352;14.058;2022-12-07T14:03:28;6.40;39.60
326;DHT22;150;52.352;14.058;2022-12-07T14:06:19;6.40;40.10
326;DHT22;150;52.352;14.058;2022-12-07T14:08:47;6.30;40.70
326;DHT22;150;52.352;14.058;2022-12-07T14:11:17;6.30;40.90
326;DHT22;150;52.352;14.058;2022-12-07T14:13:55;6.20;40.90
326;DHT22;150;52.352;14.058;2022-12-07T14:16:26;6.30;41.00
326;DHT22;150;52.352;14.058;2022-12-07T14:18:57;6.40;41.10
326;DHT22;150;52.352;14.058;2022-12-07T14:21:26;6.40;41.10
326;DHT22;150;52.352;14.058;2022-12-07T14:24:12;6.40;41.00
326;DHT22;150;52.352;14.058;2022-12-07T14:26:42;6.50;40.70
326;DHT22;150;52.352;14.058;2022-12-07T14:29:29;6.50;40.30
326;DHT22;150;52.352;14.058;2022-12-07T14:31:59;6.40;40.40
326;DHT22;150;52.352;14.058;2022-12-07T14:34:39;6.20;40.90
326;DHT22;150;52.352;14.058;2022-12-07T14:37:07;6.20;40.90
326;DHT22;150;52.352;14.058;2022-12-07T14:39:37;6.10;40.80
326;DHT22;150;52.352;14.058;2022-12-07T14:42:04;6.10;40.90
326;DHT22;150;52.352;14.058;2022-12-07T14:44:31;6.10;41.30
326;DHT22;150;52.352;14.058;2022-12-07T14:46:58;6.10;41.50
326;DHT22;150;52.352;14.058;2022-12-07T14:49:25;6.10;40.80
326;DHT22;150;52.352;14.058;2022-12-07T14:51:53;6.10;41.30
326;DHT22;150;52.352;14.058;2022-12-07T14:54:20;5.90;41.40
326;DHT22;150;52.352;14.058;2022-12-07T14:56:50;5.90;42.00
326;DHT22;150;52.352;14.058;2022-12-07T14:59:18;6.00;42.70
326;DHT22;150;52.352;14.058;2022-12-07T15:01:46;5.90;42.10
326;DHT22;150;52.352;14.058;2022-12-07T15:04:13;5.90;42.50
326;DHT22;150;52.352;14.058;2022-12-07T15:06:42;5.90;42.40
326;DHT22;150;52.352;14.058;2022-12-07T15:09:11;5.90;41.70
326;DHT22;150;52.352;14.058;2022-12-07T15:11:38;5.90;42.20
326;DHT22;150;52.352;14.058;2022-12-07T15:14:05;5.90;42.30
326;DHT22;150;52.352;14.058;2022-12-07T15:16:38;5.90;41.90
326;DHT22;150;52.352;14.058;2022-12-07T15:19:12;5.80;41.80
326;DHT22;150;52.352;14.058;2022-12-07T15:21:39;5.80;41.80
326;DHT22;150;52.352;14.058;2022-12-07T15:24:11;5.70;42.20
326;DHT22;150;52.352;14.058;2022-12-07T15:26:39;5.60;42.30
326;DHT22;150;52.352;14.058;2022-12-07T15:29:06;5.60;42.60
326;DHT22;150;52.352;14.058;2022-12-07T15:31:34;5.60;42.60
326;DHT22;150;52.352;14.058;2022-12-07T15:34:02;5.60;42.80
326;DHT22;150;52.352;14.058;2022-12-07T15:36:30;5.60;43.10
326;DHT22;150;52.352;14.058;2022-12-07T15:38:57;5.50;43.30
326;DHT22;150;52.352;14.058;2022-12-07T15:41:26;5.50;43.20
326;DHT22;150;52.352;14.058;2022-12-07T15:43:53;5.50;43.00
326;DHT22;150;52.352;14.058;2022-12-07T15:46:39;5.50;43.40
326;DHT22;150;52.352;14.058;2022-12-07T15:49:10;5.50;43.30
326;DHT22;150;52.352;14.058;2022-12-07T15:51:41;5.50;43.10
326;DHT22;150;52.352;14.058;2022-12-07T15:54:12;5.50;42.80
326;DHT22;150;52.352;14.058;2022-12-07T15:56:41;5.50;42.90
326;DHT22;150;52.352;14.058;2022-12-07T15:59:10;5.40;43.10
326;DHT22;150;52.352;14.058;2022-12-07T16:01:39;5.40;43.50
326;DHT22;150;52.352;14.058;2022-12-07T16:04:06;5.30;43.20
326;DHT22;150;52.352;14.058;2022-12-07T16:06:33;5.10;43.70
326;DHT22;150;52.352;14.058;2022-12-07T16:09:01;5.10;44.00
326;DHT22;150;52.352;14.058;2022-12-07T16:11:28;5.00;44.20
326;DHT22;150;52.352;14.058;2022-12-07T16:13:56;5.00;44.20
326;DHT22;150;52.352;14.058;2022-12-07T16:16:26;5.00;44.50
326;DHT22;150;52.352;14.058;2022-12-07T16:18:53;5.00;45.10
326;DHT22;150;52.352;14.058;2022-12-07T16:21:19;5.00;44.60
326;DHT22;150;52.352;14.058;2022-12-07T16:23:46;5.00;44.60
326;DHT22;150;52.352;14.058;2022-12-07T16:26:17;4.90;44.80
326;DHT22;150;52.352;14.058;2022-12-07T16:28:44;4.90;44.90
326;DHT22;150;52.352;14.058;2022-12-07T16:31:15;4.90;44.90
326;DHT22;150;52.352;14.058;2022-12-07T16:33:42;4.90;45.00
326;DHT22;150;52.352;14.058;2022-12-07T16:36:11;4.90;45.00
326;DHT22;150;52.352;14.058;2022-12-07T16:38:39;4.90;44.90
326;DHT22;150;52.352;14.058;2022-12-07T16:41:07;4.80;44.90
326;DHT22;150;52.352;14.058;2022-12-07T16:43:34;4.70;45.50
326;DHT22;150;52.352;14.058;2022-12-07T16:46:02;4.70;45.50
326;DHT22;150;52.352;14.058;2022-12-07T16:48:30;4.70;45.80
326;DHT22;150;52.352;14.058;2022-12-07T16:50:57;4.70;46.10
326;DHT22;150;52.352;14.058;2022-12-07T16:53:28;4.70;46.10
326;DHT22;150;52.352;14.058;2022-12-07T16:55:55;4.70;46.20
326;DHT22;150;52.352;14.058;2022-12-07T16:58:21;4.80;46.00
326;DHT22;150;52.352;14.058;2022-12-07T17:00:48;4.80;45.50
326;DHT22;150;52.352;14.058;2022-12-07T17:03:15;4.90;45.70
326;DHT22;150;52.352;14.058;2022-12-07T17:05:45;4.80;45.20
326;DHT22;150;52.352;14.058;2022-12-07T17:08:13;4.80;45.40
326;DHT22;150;52.352;14.058;2022-12-07T17:10:43;4.80;45.50
326;DHT22;150;52.352;14.058;2022-12-07T17:13:11;4.80;45.60
326;DHT22;150;52.352;14.058;2022-12-07T17:16:00;4.70;45.90
326;DHT22;150;52.352;14.058;2022-12-07T17:18:28;4.70;46.20
326;DHT22;150;52.352;14.058;2022-12-07T17:21:03;4.70;45.70